Time;durP1;ratioP1;P1;durP2;ratioP2;P2;SDS_P1;SDS_P2;PMS_P1;PMS_P2;Temp;Humidity;BMP_temperature;BMP_pressure;BME280_temperature;BME280_humidity;BME280_pressure;Samples;Min_cycle;Max_cycle;Signal;HPM_P1;HPM_P2
2021/03/09 00:01:26;;;;;;;8.77;3.20;;;2.30;53.70;;;;;;5055102;28;20071;-63
2021/03/09 00:03:52;;;;;;;9.57;3.00;;;2.30;53.70;;;;;;5055402;28;20056;-64
2021/03/09 00:06:17;;;;;;;9.13;2.87;;;2.20;53.80;;;;;;5055764;28;20489;-63
2021/03/09 00:08:43;;;;;;;8.03;2.40;;;2.20;54.00;;;;;;5073149;28;20037;-62
2021/03/09 00:11:08;;;;;;;8.20;2.63;;;2.30;54.10;;;;;;5073002;28;20048;-61
2021/03/09 00:13:34;;;;;;;9.03;3.10;;;2.20;54.00;;;;;;5073161;28;20123;-61
2021/03/09 00:16:00;;;;;;;9.73;3.00;;;2.30;54.10;;;;;;5072989;28;20033;-61
2021/03/09 00:18:25;;;;;;;7.93;2.93;;;2.30;54.20;;;;;;5055329;28;20028;-61
2021/03/09 00:20:51;;;;;;;8.70;2.93;;;2.30;54.30;;;;;;5054637;28;20484;-63
2021/03/09 00:23:16;;;;;;;7.77;2.73;;;2.30;54.30;;;;;;5073388;28;20100;-63
2021/03/09 00:25:42;;;;;;;8.67;3.20;;;2.30;54.30;;;;;;5038528;28;20047;-63
2021/03/09 00:28:08;;;;;;;9.23;3.03;;;2.30;54.40;;;;;;5072690;28;20409;-63
2021/03/09 00:30:33;;;;;;;7.37;3.00;;;2.30;54.40;;;;;;5055088;28;20033;-61
2021/03/09 00:32:59;;;;;;;7.77;2.97;;;2.30;54.40;;;;;;5072860;28;20131;-62
2021/03/09 00:35:25;;;;;;;8.53;3.00;;;2.30;54.30;;;;;;5054595;28;20044;-61
2021/03/09 00:37:50;;;;;;;10.40;3.20;;;2.30;54.30;;;;;;5055138;28;20039;-66
2021/03/09 00:40:16;;;;;;;7.60;3.17;;;2.30;54.30;;;;;;5072219;28;20071;-65
2021/03/09 00:42:42;;;;;;;8.33;3.03;;;2.20;54.30;;;;;;5038163;28;20036;-66
2021/03/09 00:45:08;;;;;;;8.43;3.30;;;2.30;54.40;;;;;;5072834;28;20499;-65
2021/03/09 00:47:33;;;;;;;8.10;2.77;;;2.30;54.50;;;;;;5072306;28;20036;-65
2021/03/09 00:49:59;;;;;;;8.63;2.90;;;2.30;54.50;;;;;;5038087;28;20047;-65
2021/03/09 00:52:25;;;;;;;8.80;3.10;;;2.30;54.50;;;;;;5054185;28;20373;-65
2021/03/09 00:54:50;;;;;;;8.70;3.00;;;2.20;54.40;;;;;;5054840;28;20051;-65
2021/03/09 00:57:16;;;;;;;7.57;2.60;;;2.20;54.30;;;;;;5072525;28;20062;-63
2021/03/09 00:59:42;;;;;;;9.70;3.10;;;2.20;54.30;;;;;;5072142;28;20048;-64
2021/03/09 01:02:07;;;;;;;7.80;2.90;;;2.20;54.40;;;;;;5072170;28;20063;-64
2021/03/09 01:04:33;;;;;;;9.40;2.77;;;2.20;54.30;;;;;;5072442;28;20045;-64
2021/03/09 01:06:58;;;;;;;9.77;2.83;;;2.20;54.30;;;;;;5072012;28;20060;-64
2021/03/09 01:09:24;;;;;;;7.37;2.97;;;2.10;54.40;;;;;;5072421;28;20408;-64
2021/03/09 01:11:50;;;;;;;6.60;2.70;;;2.10;54.40;;;;;;5053659;28;20029;-64
2021/03/09 01:14:15;;;;;;;7.93;2.97;;;2.10;54.40;;;;;;5071569;28;20570;-64
2021/03/09 01:16:41;;;;;;;7.50;2.70;;;2.10;54.40;;;;;;5054269;28;20032;-66
2021/03/09 01:19:07;;;;;;;6.63;2.70;;;2.10;54.50;;;;;;5053883;28;20535;-61
2021/03/09 01:21:32;;;;;;;8.10;2.77;;;2.10;54.50;;;;;;5053937;28;20037;-61
2021/03/09 01:23:58;;;;;;;7.53;2.60;;;2.10;54.50;;;;;;5072004;28;20056;-61
2021/03/09 01:26:23;;;;;;;7.13;2.70;;;2.10;54.40;;;;;;5053814;28;20044;-62
2021/03/09 01:28:49;;;;;;;7.67;2.67;;;2.10;54.90;;;;;;5071905;28;20455;-61
2021/03/09 01:31:15;;;;;;;6.40;2.33;;;2.20;54.50;;;;;;5069906;28;20048;-62
2021/03/09 01:33:40;;;;;;;8.20;2.47;;;2.10;54.30;;;;;;5053943;28;20132;-62
2021/03/09 01:36:07;;;;;;;7.03;2.40;;;2.20;54.40;;;;;;5071920;28;20033;-62
2021/03/09 01:38:32;;;;;;;8.63;2.70;;;2.20;54.30;;;;;;5053282;28;20040;-62
2021/03/09 01:40:58;;;;;;;6.90;2.40;;;2.20;54.30;;;;;;5053689;28;20507;-65
2021/03/09 01:43:24;;;;;;;8.57;2.80;;;2.20;54.20;;;;;;5071262;28;20045;-66
2021/03/09 01:45:50;;;;;;;6.30;2.37;;;2.20;54.10;;;;;;5070316;28;20028;-62
2021/03/09 01:48:21;;;;;;;6.93;2.00;;;2.20;54.10;;;;;;5071379;28;20059;-61
2021/03/09 01:50:48;;;;;;;7.40;2.37;;;2.20;54.10;;;;;;5053098;28;20067;-62
2021/03/09 01:53:13;;;;;;;7.33;2.37;;;2.20;54.20;;;;;;5071354;28;20588;-62
2021/03/09 01:55:40;;;;;;;5.93;2.37;;;2.20;54.10;;;;;;5071139;28;20323;-61
2021/03/09 01:58:10;;;;;;;6.73;2.60;;;2.20;54.50;;;;;;5071494;28;20115;-62
2021/03/09 02:00:38;;;;;;;7.97;2.72;;;2.20;54.10;;;;;;5020504;28;20032;-66
2021/03/09 02:03:04;;;;;;;5.70;2.23;;;2.10;54.00;;;;;;5070965;28;20048;-66
2021/03/09 02:05:30;;;;;;;5.97;2.30;;;2.10;54.10;;;;;;5071162;28;20056;-62
2021/03/09 02:07:56;;;;;;;5.97;2.37;;;2.10;54.10;;;;;;5070721;28;20543;-64
2021/03/09 02:10:22;;;;;;;8.73;2.70;;;2.10;54.10;;;;;;5053315;28;20083;-64
2021/03/09 02:13:25;;;;;;;7.33;2.50;;;2.10;54.10;;;;;;5070927;28;20029;-64
2021/03/09 02:16:10;;;;;;;6.63;2.60;;;2.10;54.10;;;;;;5070696;28;20488;-64
2021/03/09 02:18:42;;;;;;;7.03;2.50;;;2.10;54.10;;;;;;5071149;28;20040;-64
2021/03/09 02:21:26;;;;;;;6.27;2.30;;;2.10;54.10;;;;;;5052798;28;20032;-64
2021/03/09 02:24:16;;;;;;;7.20;2.50;;;2.10;54.10;;;;;;5052766;28;20055;-64
2021/03/09 02:26:53;;;;;;;8.45;2.70;;;2.10;54.10;;;;;;5071147;28;20075;-64
2021/03/09 02:29:36;;;;;;;7.47;2.40;;;2.10;54.00;;;;;;5071796;28;20037;-64
2021/03/09 02:32:04;;;;;;;7.10;2.50;;;2.10;54.10;;;;;;5055943;28;20084;-66
2021/03/09 02:34:34;;;;;;;7.13;2.50;;;2.10;54.00;;;;;;5078608;28;20044;-64
2021/03/09 02:37:06;;;;;;;6.65;2.40;;;2.10;54.00;;;;;;5059464;28;20036;-64
2021/03/09 02:39:33;;;;;;;6.83;2.27;;;2.10;53.90;;;;;;5073063;28;20481;-64
2021/03/09 02:42:02;;;;;;;7.73;2.40;;;2.10;53.90;;;;;;5071948;28;20078;-64
2021/03/09 02:44:29;;;;;;;7.70;2.40;;;2.10;53.90;;;;;;5070690;28;20043;-64
2021/03/09 02:46:57;;;;;;;6.97;2.30;;;2.00;53.80;;;;;;5053084;28;20041;-64
2021/03/09 02:49:24;;;;;;;5.80;2.20;;;2.10;53.90;;;;;;5070424;28;20413;-64
2021/03/09 02:51:51;;;;;;;6.63;2.50;;;2.10;53.90;;;;;;5070463;28;20106;-64
2021/03/09 02:54:18;;;;;;;6.07;2.53;;;2.10;53.90;;;;;;5070710;28;20051;-64
2021/03/09 02:56:45;;;;;;;7.13;2.33;;;2.10;53.90;;;;;;5070519;28;20036;-64
2021/03/09 02:59:14;;;;;;;7.77;2.20;;;2.10;53.90;;;;;;5070859;28;20029;-64
2021/03/09 03:01:45;;;;;;;5.53;2.07;;;2.10;53.90;;;;;;5069885;28;20450;-64
2021/03/09 03:04:14;;;;;;;5.97;2.25;;;2.10;53.90;;;;;;5053844;28;20047;-65
2021/03/09 03:06:41;;;;;;;6.10;2.13;;;2.10;53.90;;;;;;5074281;28;20095;-66
2021/03/09 03:09:07;;;;;;;7.60;2.30;;;2.10;53.90;;;;;;5053043;28;20043;-64
2021/03/09 03:11:33;;;;;;;6.50;2.17;;;2.10;53.90;;;;;;5052300;28;20135;-64
2021/03/09 03:14:04;;;;;;;6.10;2.10;;;2.10;53.90;;;;;;5070062;28;20041;-64
2021/03/09 03:16:31;;;;;;;7.65;2.40;;;2.20;53.90;;;;;;5052869;28;20454;-64
2021/03/09 03:19:00;;;;;;;7.07;2.40;;;2.20;53.90;;;;;;5052199;28;20039;-64
2021/03/09 03:21:27;;;;;;;6.63;2.30;;;2.20;53.90;;;;;;5070080;28;20547;-64
2021/03/09 03:23:55;;;;;;;6.83;2.30;;;2.20;53.90;;;;;;5070422;28;20459;-64
2021/03/09 03:26:23;;;;;;;6.80;2.37;;;2.20;54.00;;;;;;5052271;28;20059;-64
2021/03/09 03:28:49;;;;;;;6.93;2.30;;;2.20;54.00;;;;;;5052573;28;20028;-65
2021/03/09 03:31:15;;;;;;;8.47;2.30;;;2.20;54.10;;;;;;5069491;28;20094;-65
2021/03/09 03:33:41;;;;;;;8.67;2.10;;;2.20;54.10;;;;;;5052502;28;20045;-66
2021/03/09 03:36:07;;;;;;;5.43;1.87;;;2.30;54.10;;;;;;5052759;28;20531;-65
2021/03/09 03:38:34;;;;;;;7.50;2.53;;;2.30;54.00;;;;;;5072718;28;20037;-65
2021/03/09 03:41:02;;;;;;;6.17;1.93;;;2.30;54.00;;;;;;5073638;28;20036;-65
2021/03/09 03:43:28;;;;;;;7.57;2.03;;;2.30;54.00;;;;;;5073360;28;20043;-65
2021/03/09 03:45:54;;;;;;;6.63;2.30;;;2.40;53.90;;;;;;5073759;28;20025;-65
2021/03/09 03:48:21;;;;;;;6.53;2.37;;;2.40;53.90;;;;;;5073963;28;20120;-65
2021/03/09 03:50:48;;;;;;;6.23;2.17;;;2.40;53.80;;;;;;5055071;28;20087;-65
2021/03/09 03:53:29;;;;;;;6.03;1.93;;;2.40;53.80;;;;;;5073620;28;20059;-65
2021/03/09 03:56:10;;;;;;;;;;;2.40;53.70;;;;;;5073760;28;20036;-66
2021/03/09 03:58:56;;;;;;;6.03;1.83;;;2.50;53.70;;;;;;5055812;28;20380;-66
2021/03/09 04:01:24;;;;;;;6.10;2.03;;;2.50;53.50;;;;;;5038366;28;20029;-63
2021/03/09 04:03:52;;;;;;;5.47;1.90;;;2.50;53.50;;;;;;5039107;28;20029;-63
2021/03/09 04:06:23;;;;;;;5.80;2.00;;;2.50;53.50;;;;;;5055449;28;20036;-63
2021/03/09 04:08:49;;;;;;;6.20;2.10;;;2.50;53.40;;;;;;5073435;28;20032;-63
2021/03/09 04:11:16;;;;;;;6.80;2.40;;;2.50;53.40;;;;;;5072827;28;20044;-63
2021/03/09 04:13:43;;;;;;;5.17;1.90;;;2.50;53.20;;;;;;5073352;28;20552;-63
2021/03/09 04:16:12;;;;;;;5.17;1.80;;;2.50;53.20;;;;;;5073389;28;20044;-63
2021/03/09 04:18:38;;;;;;;6.43;1.90;;;2.50;53.20;;;;;;5055303;28;20037;-63
2021/03/09 04:21:04;;;;;;;5.93;2.07;;;2.50;53.20;;;;;;5072932;28;20116;-63
2021/03/09 04:23:31;;;;;;;5.33;2.10;;;2.50;53.10;;;;;;5054813;28;20052;-63
2021/03/09 04:25:58;;;;;;;7.13;2.20;;;2.50;53.00;;;;;;5055207;28;20512;-63
2021/03/09 04:28:25;;;;;;;6.03;2.13;;;2.60;53.00;;;;;;5055203;28;20040;-63
2021/03/09 04:30:51;;;;;;;6.10;2.03;;;2.60;53.00;;;;;;5054750;28;20099;-63
2021/03/09 04:33:17;;;;;;;6.60;1.93;;;2.60;52.80;;;;;;5072858;28;20543;-63
2021/03/09 04:35:43;;;;;;;7.17;2.30;;;2.60;52.80;;;;;;5038131;28;20175;-63
2021/03/09 04:38:09;;;;;;;6.63;2.20;;;2.60;52.70;;;;;;5072981;28;20417;-63
2021/03/09 04:40:36;;;;;;;5.40;2.00;;;2.60;52.70;;;;;;5072671;28;20033;-63
2021/03/09 04:43:04;;;;;;;5.93;1.90;;;2.60;52.70;;;;;;5072198;28;20045;-63
2021/03/09 04:45:30;;;;;;;6.73;2.37;;;2.50;52.90;;;;;;5072886;28;20509;-63
2021/03/09 04:48:00;;;;;;;7.53;2.23;;;2.50;53.00;;;;;;5071866;28;20119;-63
2021/03/09 04:50:27;;;;;;;7.43;2.00;;;2.60;53.00;;;;;;5071709;28;20033;-63
2021/03/09 04:52:53;;;;;;;6.93;2.27;;;2.60;52.90;;;;;;5072416;28;20074;-63
2021/03/09 04:55:23;;;;;;;6.17;2.30;;;2.60;53.00;;;;;;5072134;28;20497;-63
2021/03/09 04:57:49;;;;;;;9.80;2.17;;;2.60;53.00;;;;;;5072686;28;20039;-63
2021/03/09 05:00:21;;;;;;;7.27;2.43;;;2.60;53.10;;;;;;5071983;28;20041;-63
2021/03/09 05:02:48;;;;;;;8.73;2.53;;;2.60;53.20;;;;;;5072292;28;20396;-63
2021/03/09 05:05:15;;;;;;;5.40;2.03;;;2.60;53.30;;;;;;5053889;28;20044;-64
2021/03/09 05:07:41;;;;;;;6.57;2.40;;;2.60;53.50;;;;;;5054685;28;20118;-63
2021/03/09 05:10:08;;;;;;;6.77;2.57;;;2.60;53.70;;;;;;5054175;28;20462;-63
2021/03/09 05:12:35;;;;;;;4.90;2.13;;;2.60;54.00;;;;;;5071868;28;20132;-63
2021/03/09 05:15:02;;;;;;;5.70;2.17;;;2.50;54.30;;;;;;5054072;28;20440;-63
2021/03/09 05:17:28;;;;;;;8.83;2.40;;;2.60;54.70;;;;;;5053870;28;20098;-63
2021/03/09 05:19:53;;;;;;;6.23;2.60;;;2.60;55.00;;;;;;5072360;28;20115;-63
2021/03/09 05:22:19;;;;;;;6.87;2.27;;;2.50;55.00;;;;;;5071922;28;20044;-63
2021/03/09 05:24:45;;;;;;;7.97;2.90;;;2.50;55.40;;;;;;5071747;28;20032;-63
2021/03/09 05:27:10;;;;;;;8.60;2.50;;;2.40;55.70;;;;;;5054071;28;20032;-63
2021/03/09 05:29:36;;;;;;;6.60;2.50;;;2.40;56.20;;;;;;5072151;28;20036;-63
2021/03/09 05:32:02;;;;;;;7.03;2.40;;;2.30;56.50;;;;;;5071040;28;20045;-63
2021/03/09 05:34:28;;;;;;;10.50;2.80;;;2.30;56.80;;;;;;5054280;28;20489;-63
2021/03/09 05:36:53;;;;;;;6.23;2.47;;;2.30;57.00;;;;;;5071281;28;20043;-63
2021/03/09 05:39:19;;;;;;;6.53;2.63;;;2.30;57.20;;;;;;5054229;28;20032;-63
2021/03/09 05:41:45;;;;;;;8.93;3.20;;;2.30;58.00;;;;;;5072756;28;20032;-65
2021/03/09 05:44:10;;;;;;;6.50;2.30;;;2.30;57.80;;;;;;5054666;28;20049;-65
2021/03/09 05:46:36;;;;;;;6.60;2.60;;;2.20;58.00;;;;;;5071667;28;20055;-65
2021/03/09 05:49:02;;;;;;;8.10;2.70;;;2.20;58.30;;;;;;5071263;28;20032;-62
2021/03/09 05:51:30;;;;;;;6.93;2.47;;;2.20;58.50;;;;;;5053413;28;20128;-63
2021/03/09 05:53:56;;;;;;;5.87;2.70;;;2.20;58.80;;;;;;5071505;28;20041;-63
2021/03/09 05:56:23;;;;;;;10.10;2.80;;;2.20;59.00;;;;;;5053368;28;20036;-65
2021/03/09 05:58:49;;;;;;;8.57;3.00;;;2.20;59.20;;;;;;5071583;28;20091;-65
2021/03/09 06:01:15;;;;;;;7.33;2.70;;;2.10;59.40;;;;;;5052941;28;20036;-65
2021/03/09 06:03:41;;;;;;;7.20;2.60;;;2.10;59.70;;;;;;5071137;28;20032;-65
2021/03/09 06:06:08;;;;;;;8.07;2.57;;;2.10;59.90;;;;;;5053779;28;20040;-65
2021/03/09 06:08:33;;;;;;;7.40;2.57;;;2.10;60.10;;;;;;5036813;28;20036;-66
2021/03/09 06:11:17;;;;;;;6.77;2.40;;;2.00;60.30;;;;;;5058168;28;20039;-65
2021/03/09 06:13:43;;;;;;;6.50;2.60;;;2.00;60.60;;;;;;5082255;28;20117;-65
2021/03/09 06:16:09;;;;;;;7.97;2.30;;;2.00;60.50;;;;;;5079521;28;20040;-65
2021/03/09 06:18:35;;;;;;;6.93;2.50;;;2.10;60.50;;;;;;5055172;28;20115;-63
2021/03/09 06:21:08;;;;;;;8.97;2.50;;;2.00;60.60;;;;;;5071834;28;20075;-65
2021/03/09 06:23:34;;;;;;;7.27;2.87;;;2.00;60.70;;;;;;5071752;28;20071;-65
2021/03/09 06:26:00;;;;;;;7.77;2.63;;;2.00;60.80;;;;;;5052762;28;20051;-65
2021/03/09 06:28:32;;;;;;;9.27;2.80;;;2.00;60.80;;;;;;5071052;28;20079;-65
2021/03/09 06:30:59;;;;;;;7.07;2.43;;;2.00;60.90;;;;;;5070448;28;20048;-65
2021/03/09 06:33:32;;;;;;;7.90;2.60;;;2.00;60.90;;;;;;5053476;28;20041;-65
2021/03/09 06:36:00;;;;;;;7.78;2.72;;;1.90;60.80;;;;;;5052851;28;20461;-65
2021/03/09 06:38:29;;;;;;;7.27;2.80;;;1.90;61.00;;;;;;5053231;28;20457;-65
2021/03/09 06:41:18;;;;;;;7.77;2.50;;;1.90;61.40;;;;;;5070922;28;20028;-65
2021/03/09 06:43:44;;;;;;;6.63;2.60;;;1.90;61.50;;;;;;5070673;28;20443;-65
2021/03/09 06:46:21;;;;;;;5.93;2.40;;;1.80;61.50;;;;;;5053167;28;20040;-65
2021/03/09 06:48:49;;;;;;;9.33;3.07;;;1.80;61.80;;;;;;5070736;28;20040;-65
2021/03/09 06:51:35;;;;;;;7.67;3.00;;;1.80;62.00;;;;;;5070608;28;20043;-65
2021/03/09 06:54:10;;;;;;;8.30;2.83;;;1.70;62.30;;;;;;5036012;28;20060;-65
2021/03/09 06:56:41;;;;;;;9.20;3.03;;;1.70;62.60;;;;;;5071686;28;20036;-65
2021/03/09 06:59:31;;;;;;;8.80;2.90;;;1.70;62.70;;;;;;5070241;28;20091;-65
2021/03/09 07:02:09;;;;;;;7.25;2.80;;;1.60;63.00;;;;;;5052233;28;20024;-64
2021/03/09 07:04:37;;;;;;;7.50;3.03;;;1.60;63.30;;;;;;5070842;28;20066;-65
2021/03/09 07:07:04;;;;;;;7.90;3.23;;;1.60;63.70;;;;;;5070264;28;20041;-64
2021/03/09 07:09:31;;;;;;;7.90;2.93;;;1.60;64.10;;;;;;5070608;28;20106;-65
2021/03/09 07:11:58;;;;;;;6.60;2.90;;;1.60;64.30;;;;;;5070722;28;20095;-65
2021/03/09 07:14:24;;;;;;;6.40;2.90;;;1.70;64.50;;;;;;5074232;28;20132;-65
2021/03/09 07:16:52;;;;;;;7.23;3.00;;;1.70;64.40;;;;;;5074638;28;20108;-65
2021/03/09 07:19:31;;;;;;;7.20;2.87;;;1.70;64.30;;;;;;5074043;28;20036;-65
2021/03/09 07:21:57;;;;;;;8.90;3.37;;;1.70;64.50;;;;;;5074215;28;20032;-66
2021/03/09 07:24:24;;;;;;;9.83;3.67;;;1.60;64.70;;;;;;5055963;28;20132;-63
2021/03/09 07:26:56;;;;;;;8.90;3.00;;;1.60;65.10;;;;;;5056661;28;20039;-63
2021/03/09 07:29:26;;;;;;;8.60;2.80;;;1.70;65.20;;;;;;5055829;28;20119;-61
2021/03/09 07:31:55;;;;;;;12.87;3.53;;;1.70;65.40;;;;;;5055992;28;20451;-61
2021/03/09 07:34:21;;;;;;;8.57;3.23;;;1.60;65.70;;;;;;5074063;28;20091;-65
2021/03/09 07:36:48;;;;;;;9.00;3.50;;;1.70;66.10;;;;;;5073618;28;20098;-65
2021/03/09 07:39:17;;;;;;;7.67;3.30;;;1.70;66.00;;;;;;5074082;28;20068;-66
2021/03/09 07:41:43;;;;;;;8.40;3.50;;;1.70;65.80;;;;;;5073188;28;20067;-61
2021/03/09 07:44:09;;;;;;;9.00;3.50;;;1.70;66.00;;;;;;5074266;28;20443;-61
2021/03/09 07:46:36;;;;;;;11.67;3.53;;;1.70;66.10;;;;;;5072198;28;20044;-61
2021/03/09 07:49:02;;;;;;;10.60;3.67;;;1.70;66.30;;;;;;5054387;28;20036;-61
2021/03/09 07:51:28;;;;;;;8.43;3.33;;;1.70;66.20;;;;;;5071977;28;20653;-61
2021/03/09 07:54:09;;;;;;;9.93;3.57;;;1.70;66.30;;;;;;5071822;28;20037;-61
2021/03/09 07:56:34;;;;;;;;;;;1.70;66.60;;;;;;5072837;28;20056;-61
2021/03/09 07:59:07;;;;;;;10.80;3.67;;;1.70;66.60;;;;;;5071657;28;19956;-61
2021/03/09 08:01:46;;;;;;;7.37;3.47;;;1.60;66.70;;;;;;5071544;28;20436;-61
2021/03/09 08:04:12;;;;;;;9.03;3.47;;;1.60;67.50;;;;;;5070765;28;20044;-61
2021/03/09 08:06:44;;;;;;;11.80;4.00;;;1.70;67.80;;;;;;5072170;28;20033;-64
2021/03/09 08:09:45;;;;;;;8.37;3.80;;;1.70;67.70;;;;;;5071735;28;20471;-63
2021/03/09 08:12:23;;;;;;;9.27;3.72;;;1.70;67.90;;;;;;4989561;28;20038;-63
2021/03/09 08:14:49;;;;;;;8.87;3.70;;;1.70;68.30;;;;;;5062043;28;20032;-63
2021/03/09 08:17:27;;;;;;;9.03;3.60;;;1.70;68.30;;;;;;5071648;28;20063;-63
2021/03/09 08:19:53;;;;;;;10.93;3.83;;;1.70;68.30;;;;;;5071699;28;20040;-63
2021/03/09 08:22:35;;;;;;;9.33;3.77;;;1.70;68.80;;;;;;5036238;28;20074;-63
2021/03/09 08:25:01;;;;;;;8.90;3.93;;;1.70;69.00;;;;;;5071852;28;20045;-63
2021/03/09 08:27:38;;;;;;;9.90;4.07;;;1.80;69.40;;;;;;5071365;28;20051;-63
2021/03/09 08:30:07;;;;;;;9.53;4.17;;;1.80;69.40;;;;;;5071593;28;20582;-63
2021/03/09 08:32:35;;;;;;;10.87;4.33;;;1.90;69.60;;;;;;5071014;28;20071;-63
2021/03/09 08:35:13;;;;;;;9.33;4.30;;;1.90;69.60;;;;;;5053773;28;20063;-63
2021/03/09 08:37:49;;;;;;;9.93;4.30;;;2.00;69.70;;;;;;5071228;28;20044;-64
2021/03/09 08:40:20;;;;;;;11.57;4.80;;;2.00;69.90;;;;;;5055167;28;20037;-63
2021/03/09 08:43:01;;;;;;;9.77;4.20;;;2.10;69.80;;;;;;5081211;22;20105;-69
2021/03/09 08:45:38;;;;;;;8.10;3.75;;;2.10;69.80;;;;;;5029978;28;20035;-69
2021/03/09 08:48:09;;;;;;;10.80;4.40;;;2.20;69.80;;;;;;5071042;28;20044;-69
2021/03/09 08:50:42;;;;;;;8.73;4.18;;;2.20;70.00;;;;;;5071201;28;20399;-69
2021/03/09 08:53:31;;;;;;;10.17;4.40;;;2.30;70.10;;;;;;5070809;28;20512;-69
2021/03/09 08:55:58;;;;;;;10.83;4.80;;;2.30;70.10;;;;;;5071431;28;20031;-68
2021/03/09 08:58:24;;;;;;;10.60;4.33;;;2.40;69.80;;;;;;5071058;28;20055;-69
2021/03/09 09:00:50;;;;;;;9.27;4.57;;;2.30;69.70;;;;;;5052829;28;20056;-69
2021/03/09 09:03:36;;;;;;;10.77;4.63;;;2.30;70.00;;;;;;5051355;28;20036;-68
2021/03/09 09:06:06;;;;;;;9.67;4.27;;;2.40;70.60;;;;;;5070001;28;20067;-69
2021/03/09 09:08:32;;;;;;;10.88;5.25;;;2.40;70.30;;;;;;5070234;28;20047;-68
2021/03/09 09:10:59;;;;;;;11.63;4.50;;;2.40;70.10;;;;;;5071174;28;20036;-69
2021/03/09 09:13:35;;;;;;;12.47;6.03;;;2.50;70.30;;;;;;5071267;28;20032;-68
2021/03/09 09:16:15;;;;;;;14.47;5.20;;;2.50;70.70;;;;;;5071811;28;20036;-69
2021/03/09 09:18:40;;;;;;;14.63;5.20;;;2.60;71.30;;;;;;5073794;28;20047;-68
2021/03/09 09:21:06;;;;;;;12.93;5.73;;;2.70;71.30;;;;;;5054310;28;20032;-68
2021/03/09 09:23:35;;;;;;;12.10;5.50;;;2.80;70.70;;;;;;5071686;28;20496;-69
2021/03/09 09:26:02;;;;;;;11.77;5.50;;;2.80;70.30;;;;;;5072798;28;20045;-68
2021/03/09 09:28:32;;;;;;;12.90;5.80;;;2.80;70.30;;;;;;5074696;28;20060;-68
2021/03/09 09:31:01;;;;;;;13.43;6.37;;;2.80;70.30;;;;;;5073430;28;20287;-69
2021/03/09 09:33:29;;;;;;;14.57;6.50;;;2.70;70.40;;;;;;5054209;28;20037;-69
2021/03/09 09:35:55;;;;;;;16.67;8.67;;;2.70;70.70;;;;;;5071228;28;20048;-68
2021/03/09 09:38:22;;;;;;;14.77;7.00;;;2.80;71.30;;;;;;5050494;28;20075;-68
2021/03/09 09:40:53;;;;;;;15.10;6.97;;;2.80;70.80;;;;;;5068365;28;20119;-68
2021/03/09 09:43:21;;;;;;;14.93;6.70;;;2.80;71.20;;;;;;5071455;28;20044;-68
2021/03/09 09:45:51;;;;;;;14.87;6.83;;;2.90;71.30;;;;;;5071370;28;20067;-69
2021/03/09 09:48:20;;;;;;;15.88;7.00;;;2.90;71.50;;;;;;5071117;28;20050;-69
2021/03/09 09:50:48;;;;;;;14.63;6.87;;;3.00;71.70;;;;;;5071725;28;20029;-68
2021/03/09 09:53:35;;;;;;;18.13;7.00;;;3.10;71.50;;;;;;5071004;28;20166;-69
2021/03/09 09:56:03;;;;;;;17.60;7.20;;;3.10;71.20;;;;;;5043242;28;20035;-69
2021/03/09 09:58:45;;;;;;;18.30;7.20;;;3.10;71.10;;;;;;5070875;28;20033;-68
2021/03/09 10:01:13;;;;;;;16.77;7.90;;;3.10;71.00;;;;;;5070743;28;20408;-68
2021/03/09 10:03:52;;;;;;;17.23;7.30;;;3.10;71.10;;;;;;5071375;28;20032;-68
2021/03/09 10:06:18;;;;;;;16.87;7.63;;;3.10;71.60;;;;;;5070912;28;20033;-62
2021/03/09 10:08:45;;;;;;;21.13;8.53;;;3.20;71.60;;;;;;5036812;28;20039;-69
2021/03/09 10:11:11;;;;;;;16.40;7.93;;;3.20;71.90;;;;;;5071067;28;20211;-68
2021/03/09 10:13:38;;;;;;;16.43;7.30;;;3.30;71.60;;;;;;5052739;28;20235;-69
2021/03/09 10:16:04;;;;;;;17.17;7.23;;;3.40;71.80;;;;;;5036546;28;20032;-69
2021/03/09 10:18:33;;;;;;;18.37;8.60;;;3.40;71.60;;;;;;5052738;28;20448;-67
2021/03/09 10:21:14;;;;;;;17.60;8.23;;;3.50;71.30;;;;;;5071113;28;20029;-68
2021/03/09 10:23:52;;;;;;;15.93;7.63;;;3.50;71.20;;;;;;5052634;28;20560;-68
2021/03/09 10:26:32;;;;;;;15.13;6.83;;;3.50;71.50;;;;;;5071222;28;20040;-68
2021/03/09 10:29:03;;;;;;;18.33;7.88;;;3.60;71.70;;;;;;5070515;28;20484;-68
2021/03/09 10:31:45;;;;;;;15.40;7.45;;;3.60;71.20;;;;;;5070764;28;20076;-69
2021/03/09 10:34:12;;;;;;;15.30;7.03;;;3.60;70.70;;;;;;5054147;28;20036;-69
2021/03/09 10:36:52;;;;;;;16.23;7.87;;;3.60;70.70;;;;;;5070777;28;20036;-67
2021/03/09 10:39:20;;;;;;;15.52;7.18;;;3.60;70.80;;;;;;5052443;28;20438;-69
2021/03/09 10:41:46;;;;;;;16.90;6.87;;;3.70;71.10;;;;;;5070203;28;20063;-69
2021/03/09 10:44:28;;;;;;;15.60;7.30;;;3.70;71.00;;;;;;5070251;28;20395;-68
2021/03/09 10:46:55;;;;;;;16.20;6.80;;;3.80;71.30;;;;;;5073028;28;20427;-68
2021/03/09 10:49:20;;;;;;;14.13;7.10;;;3.90;71.10;;;;;;5074351;28;20029;-63
2021/03/09 10:51:46;;;;;;;14.40;7.10;;;4.10;70.70;;;;;;5074507;28;20506;-63
2021/03/09 10:54:12;;;;;;;12.63;5.97;;;4.10;70.70;;;;;;5074200;28;20397;-63
2021/03/09 10:56:39;;;;;;;13.03;6.57;;;4.20;70.60;;;;;;5074720;28;20033;-63
2021/03/09 10:59:05;;;;;;;12.53;6.80;;;4.30;70.30;;;;;;5056620;28;20099;-63
2021/03/09 11:01:31;;;;;;;13.60;6.73;;;4.30;70.00;;;;;;5074097;28;20520;-63
2021/03/09 11:03:57;;;;;;;13.73;6.63;;;4.40;69.70;;;;;;5056894;28;20598;-63
2021/03/09 11:06:23;;;;;;;13.40;5.97;;;4.50;69.60;;;;;;5056682;28;20044;-63
2021/03/09 11:08:48;;;;;;;11.60;5.70;;;4.60;69.60;;;;;;5074120;28;20032;-63
2021/03/09 11:11:14;;;;;;;11.60;5.90;;;4.70;69.30;;;;;;5074398;28;20404;-64
2021/03/09 11:13:40;;;;;;;12.17;5.00;;;4.80;69.20;;;;;;5073329;28;20401;-63
2021/03/09 11:16:06;;;;;;;13.87;6.33;;;4.90;68.80;;;;;;5072480;28;20040;-63
2021/03/09 11:18:31;;;;;;;14.37;6.30;;;4.90;68.10;;;;;;5056834;28;20044;-63
2021/03/09 11:20:57;;;;;;;14.07;6.53;;;4.90;67.80;;;;;;5073618;28;20064;-63
2021/03/09 11:23:22;;;;;;;14.50;6.33;;;4.80;67.50;;;;;;5074542;28;20032;-63
2021/03/09 11:25:50;;;;;;;14.07;6.10;;;4.70;67.40;;;;;;5056326;28;20063;-63
2021/03/09 11:28:16;;;;;;;16.10;5.80;;;4.70;67.80;;;;;;5074359;28;20416;-63
2021/03/09 11:30:41;;;;;;;13.03;5.53;;;4.70;67.70;;;;;;5073956;28;20036;-63
2021/03/09 11:33:07;;;;;;;13.70;5.83;;;4.80;67.30;;;;;;5073904;28;20095;-63
2021/03/09 11:35:32;;;;;;;20.97;6.37;;;4.80;67.10;;;;;;5074274;28;20043;-65
2021/03/09 11:37:58;;;;;;;12.57;5.63;;;4.70;66.70;;;;;;5074263;28;20040;-63
2021/03/09 11:40:24;;;;;;;13.23;6.20;;;4.80;67.10;;;;;;5073994;28;20032;-63
2021/03/09 11:42:50;;;;;;;13.00;5.63;;;5.00;67.60;;;;;;5058605;28;20067;-63
2021/03/09 11:45:16;;;;;;;12.30;5.87;;;5.10;67.30;;;;;;5072556;28;20094;-63
2021/03/09 11:47:42;;;;;;;12.20;6.00;;;5.20;67.10;;;;;;5072841;28;20036;-63
2021/03/09 11:50:08;;;;;;;13.33;5.90;;;5.30;66.20;;;;;;5072648;28;20123;-63
2021/03/09 11:52:34;;;;;;;12.53;5.67;;;5.40;66.20;;;;;;5054363;28;20048;-62
2021/03/09 11:55:00;;;;;;;11.47;6.00;;;5.50;66.00;;;;;;5074169;28;20123;-62
2021/03/09 11:57:25;;;;;;;14.07;6.13;;;5.50;65.80;;;;;;5055156;28;20032;-63
2021/03/09 11:59:51;;;;;;;12.37;5.63;;;5.70;66.00;;;;;;5072931;28;20040;-62
2021/03/09 12:02:17;;;;;;;12.43;5.77;;;5.80;65.60;;;;;;5073727;28;20127;-63
2021/03/09 12:04:42;;;;;;;12.87;5.93;;;5.90;64.90;;;;;;5055375;28;20040;-63
2021/03/09 12:07:08;;;;;;;12.67;6.30;;;5.90;64.70;;;;;;5055960;28;20497;-63
2021/03/09 12:09:34;;;;;;;15.23;6.80;;;5.90;64.60;;;;;;5038137;28;20044;-63
2021/03/09 12:11:59;;;;;;;12.60;6.23;;;5.90;64.70;;;;;;5071622;28;20436;-62
2021/03/09 12:14:25;;;;;;;12.13;5.90;;;5.90;64.80;;;;;;5073394;28;20032;-63
2021/03/09 12:16:51;;;;;;;13.37;6.90;;;5.90;64.70;;;;;;5073069;28;20040;-63
2021/03/09 12:19:16;;;;;;;14.07;5.67;;;5.80;64.00;;;;;;5073145;28;20040;-62
2021/03/09 12:21:42;;;;;;;12.57;6.47;;;5.70;63.80;;;;;;5071059;28;20031;-62
2021/03/09 12:24:08;;;;;;;16.17;7.63;;;5.60;63.30;;;;;;5072149;28;20044;-62
2021/03/09 12:26:33;;;;;;;13.27;6.37;;;5.50;63.40;;;;;;5073381;28;20039;-62
2021/03/09 12:29:00;;;;;;;13.17;6.77;;;5.40;64.10;;;;;;5073323;28;20112;-62
2021/03/09 12:31:26;;;;;;;12.87;6.93;;;5.40;64.40;;;;;;5072349;28;20063;-62
2021/03/09 12:33:52;;;;;;;14.27;7.30;;;5.30;63.80;;;;;;5038625;28;20064;-62
2021/03/09 12:36:17;;;;;;;14.27;6.97;;;5.30;64.00;;;;;;5072834;28;20113;-67
2021/03/09 12:38:43;;;;;;;13.97;6.83;;;5.30;64.10;;;;;;5055483;28;20040;-67
2021/03/09 12:41:09;;;;;;;14.10;7.00;;;5.30;64.00;;;;;;5072641;28;20039;-68
2021/03/09 12:43:35;;;;;;;15.17;6.80;;;5.20;63.80;;;;;;5071947;28;20064;-67
2021/03/09 12:46:01;;;;;;;14.63;6.87;;;5.20;63.90;;;;;;5054775;28;20067;-68
2021/03/09 12:48:26;;;;;;;11.87;6.10;;;5.20;63.80;;;;;;5072572;28;20032;-67
2021/03/09 12:50:52;;;;;;;12.40;6.10;;;5.20;63.80;;;;;;5054832;28;20039;-68
2021/03/09 12:53:18;;;;;;;13.73;6.40;;;5.10;63.60;;;;;;5054838;28;20053;-68
2021/03/09 12:55:44;;;;;;;13.63;6.73;;;5.10;63.70;;;;;;5071892;28;20045;-68
2021/03/09 12:58:09;;;;;;;12.83;6.87;;;5.00;63.90;;;;;;5072954;28;20028;-68
2021/03/09 13:00:35;;;;;;;15.30;6.60;;;5.00;64.20;;;;;;5072916;28;20484;-66